createdAt,value
2023-05-22T00:04:03.020Z,19.08193
2023-05-22T00:09:04.464Z,19.82042
2023-05-22T00:14:05.875Z,19.43577
2023-05-22T00:19:07.312Z,18.92661
2023-05-22T00:24:08.759Z,19.77341
2023-05-22T00:29:10.154Z,20.78317
2023-05-22T00:34:11.574Z,20.76094
2023-05-22T00:39:13.016Z,20.68534
2023-05-22T00:44:14.398Z,21.04237
2023-05-22T00:49:15.793Z,21.64842
2023-05-22T00:54:17.158Z,20.61324
2023-05-22T00:59:18.635Z,18.89484
2023-05-22T01:04:20.153Z,20.49254
2023-05-22T01:09:21.569Z,18.89262
2023-05-22T01:14:22.927Z,17.5697
2023-05-22T01:19:24.416Z,16.56474
2023-05-22T01:24:26.036Z,16.20615
2023-05-22T01:29:27.538Z,16.63589
2023-05-22T01:34:28.918Z,16.51551
2023-05-22T01:39:30.296Z,15.67064
2023-05-22T01:44:31.740Z,16.19217
2023-05-22T01:49:33.151Z,16.26999
2023-05-22T01:54:34.564Z,15.47912
2023-05-22T01:59:35.989Z,14.51674
2023-05-22T02:04:37.365Z,13.56772
2023-05-22T02:09:38.827Z,14.94489
2023-05-22T02:14:40.243Z,14.40272
2023-05-22T02:19:41.658Z,14.62092
2023-05-22T02:24:43.089Z,14.71716
2023-05-22T02:29:49.697Z,14.46592
2023-05-22T02:34:52.883Z,14.42082
2023-05-22T02:39:56.173Z,14.77877
2023-05-22T02:45:02.803Z,14.67491
2023-05-22T02:50:04.353Z,13.07701
2023-05-22T02:55:05.739Z,12.40876
2023-05-22T03:00:07.161Z,12.50785
2023-05-22T03:05:08.515Z,12.3608
2023-05-22T03:10:09.888Z,12.28458
2023-05-22T03:15:11.285Z,12.0289
2023-05-22T03:20:12.792Z,12.89629
2023-05-22T03:25:14.200Z,12.69397
2023-05-22T03:30:15.667Z,12.69937
2023-05-22T03:35:17.072Z,12.93377
2023-05-22T03:40:18.503Z,12.60727
2023-05-22T03:45:19.952Z,12.26489
2023-05-22T03:50:21.543Z,13.24915
2023-05-22T03:55:22.936Z,13.49975
2023-05-22T04:00:26.744Z,13.80052
2023-05-22T04:05:28.831Z,13.81958
2023-05-22T04:10:30.316Z,14.09114
2023-05-22T04:15:31.870Z,14.18928
2023-05-22T04:20:33.403Z,14.30934
2023-05-22T04:25:34.829Z,13.89486
2023-05-22T04:30:36.245Z,13.75066
2023-05-22T04:35:37.767Z,13.04334
2023-05-22T04:40:39.514Z,13.1075
2023-05-22T04:45:41.177Z,13.00809
2023-05-22T04:50:42.628Z,13.12973
2023-05-22T04:55:44.047Z,12.59583
2023-05-22T05:00:45.531Z,13.73764
2023-05-22T05:05:47.009Z,13.52007
2023-05-22T05:10:48.412Z,13.77607
2023-05-22T05:15:49.876Z,13.79862
2023-05-22T05:20:51.303Z,14.09527
2023-05-22T05:25:52.859Z,13.96124
2023-05-22T05:30:54.260Z,14.31919
2023-05-22T05:35:55.675Z,14.24169
2023-05-22T05:40:57.038Z,14.43829
2023-05-22T05:45:58.450Z,13.84023
2023-05-22T05:50:59.901Z,13.18817
2023-05-22T05:56:01.430Z,13.35841
2023-05-22T06:01:02.899Z,12.82006
2023-05-22T06:06:04.375Z,13.74526
2023-05-22T06:11:05.886Z,13.83102
2023-05-22T06:16:07.414Z,13.93932
2023-05-22T06:21:08.875Z,13.80021
2023-05-22T06:26:10.283Z,13.57661
2023-05-22T06:31:11.682Z,12.99507
2023-05-22T06:36:13.089Z,13.27297
2023-05-22T06:41:14.582Z,13.67856
2023-05-22T06:46:16.082Z,13.67189
2023-05-22T06:51:17.528Z,13.58487
2023-05-22T06:56:18.987Z,13.46894
2023-05-22T07:01:20.402Z,13.04811
2023-05-22T07:06:21.918Z,13.3438
2023-05-22T07:11:23.349Z,13.11639
2023-05-22T07:16:24.805Z,13.29298
2023-05-22T07:21:26.234Z,13.205
2023-05-22T07:26:28.106Z,13.39589
2023-05-22T07:31:29.487Z,13.40478
2023-05-22T07:36:30.860Z,13.34729
2023-05-22T07:41:32.217Z,12.74797
2023-05-22T07:46:33.586Z,12.88708
2023-05-22T07:51:35.071Z,12.76893
2023-05-22T07:56:36.476Z,13.00713
2023-05-22T08:01:37.881Z,13.17896
2023-05-22T08:06:39.314Z,13.17324
2023-05-22T08:11:40.765Z,12.82102
2023-05-22T08:16:42.246Z,12.60981
2023-05-22T08:21:43.682Z,13.06113
2023-05-22T08:26:45.073Z,13.14402
2023-05-22T08:31:46.510Z,12.99125
2023-05-22T08:36:47.947Z,13.25868
2023-05-22T08:41:49.318Z,12.64601
2023-05-22T08:46:50.747Z,13.13513
2023-05-22T08:51:52.176Z,13.31045
2023-05-22T08:56:57.117Z,13.31236
2023-05-22T09:01:58.824Z,12.76194
2023-05-22T09:07:00.216Z,13.39938
2023-05-22T09:12:01.583Z,13.15038
2023-05-22T09:17:02.976Z,13.46735
2023-05-22T09:22:04.442Z,13.11766
2023-05-22T09:27:05.929Z,12.40971
2023-05-22T09:32:07.333Z,12.37954
2023-05-22T09:37:08.710Z,13.05478
2023-05-22T09:42:10.061Z,12.74543
2023-05-22T09:47:11.462Z,13.03572
2023-05-22T09:52:12.999Z,13.26249
2023-05-22T09:57:14.494Z,13.12084
2023-05-22T10:02:15.886Z,12.56312
2023-05-22T10:07:17.311Z,12.67841
2023-05-22T10:12:18.892Z,12.69238
2023-05-22T10:17:20.293Z,12.74987
2023-05-22T10:22:21.682Z,12.46942
2023-05-22T10:27:23.108Z,12.77623
2023-05-22T10:32:24.560Z,13.1148
2023-05-22T10:37:25.983Z,12.90836
2023-05-22T10:42:27.449Z,13.10655
2023-05-22T10:47:28.836Z,13.05827
2023-05-22T10:52:30.342Z,13.10242
2023-05-22T10:57:31.827Z,13.12211
2023-05-22T11:02:33.355Z,13.04811
2023-05-22T11:07:34.797Z,13.23708
2023-05-22T11:12:36.209Z,13.31204
2023-05-22T11:17:37.737Z,12.17278
2023-05-22T11:22:39.182Z,12.40336
2023-05-22T11:27:40.589Z,12.65205
2023-05-22T11:32:42.012Z,12.64665
2023-05-22T11:37:43.449Z,12.57519
2023-05-22T11:42:44.885Z,12.93218
2023-05-22T11:47:46.313Z,12.79275
2023-05-22T11:52:47.916Z,13.00364
2023-05-22T11:57:49.375Z,12.83086
2023-05-22T12:02:50.992Z,12.57233
2023-05-22T12:07:52.515Z,12.5304
2023-05-22T12:12:53.964Z,12.94647
2023-05-22T12:17:55.475Z,13.07129
2023-05-22T12:22:56.953Z,13.18404
2023-05-22T12:27:58.368Z,12.81053
2023-05-22T12:32:59.758Z,12.80514
2023-05-22T12:38:01.205Z,13.01031
2023-05-22T12:43:02.826Z,13.14815
2023-05-22T12:48:04.258Z,13.62362
2023-05-22T12:53:05.694Z,12.77909
2023-05-22T12:58:07.079Z,12.71493
2023-05-22T13:03:08.569Z,12.71112
2023-05-22T13:08:10.060Z,12.99634
2023-05-22T13:13:11.461Z,13.21199
2023-05-22T13:18:12.864Z,13.14021
2023-05-22T13:23:14.259Z,13.06049
2023-05-22T13:28:15.701Z,13.2663
2023-05-22T13:33:17.197Z,13.38318
2023-05-22T13:38:18.638Z,13.11512
2023-05-22T13:43:20.092Z,13.27393
2023-05-22T13:48:21.477Z,13.01412
2023-05-22T13:53:22.907Z,12.58916
2023-05-22T13:58:24.391Z,13.26186
2023-05-22T14:03:25.845Z,13.20024
2023-05-22T14:08:27.315Z,12.74257
2023-05-22T14:13:28.708Z,12.83118
2023-05-22T14:18:30.183Z,13.20913
2023-05-22T14:23:31.640Z,12.91852
2023-05-22T14:28:33.055Z,13.08717
2023-05-22T14:33:34.474Z,13.41907
2023-05-22T14:38:36.032Z,13.20628
2023-05-22T14:43:37.488Z,12.85691
2023-05-22T14:48:38.894Z,12.84579
2023-05-22T14:53:40.313Z,13.2193
2023-05-22T14:58:41.722Z,13.30759
2023-05-22T15:03:43.099Z,13.33904
2023-05-22T15:08:44.494Z,13.15133
2023-05-22T15:13:45.908Z,12.96267
2023-05-22T15:18:47.370Z,12.20962
2023-05-22T15:23:48.931Z,13.2212
2023-05-22T15:28:50.314Z,13.44067
2023-05-22T15:33:51.684Z,12.60504
2023-05-22T15:38:53.109Z,12.66221
2023-05-22T15:43:54.494Z,12.88422
2023-05-22T15:48:55.953Z,12.63649
2023-05-22T15:53:57.438Z,12.00413
2023-05-22T15:58:58.887Z,12.28902
2023-05-22T16:04:00.435Z,12.09274
2023-05-22T16:09:01.881Z,11.59315
2023-05-22T16:14:03.261Z,11.47437
2023-05-22T16:19:04.731Z,11.44864
2023-05-22T16:24:06.164Z,11.79705
2023-05-22T16:29:07.572Z,12.32333
2023-05-22T16:34:09.007Z,11.65127
2023-05-22T16:39:10.424Z,11.91743
2023-05-22T16:44:11.836Z,11.56298
2023-05-22T16:49:13.245Z,12.02414
2023-05-22T16:54:14.687Z,11.60617
2023-05-22T16:59:16.296Z,11.43816
2023-05-22T17:04:17.733Z,11.69415
2023-05-22T17:09:20.444Z,10.99765
2023-05-22T17:14:21.847Z,11.25459
2023-05-22T17:19:23.353Z,12.1442
2023-05-22T17:24:24.809Z,12.31126
2023-05-22T17:29:27.967Z,12.39637
2023-05-22T17:34:29.599Z,13.66649
2023-05-22T17:39:30.995Z,13.232
2023-05-22T17:44:32.397Z,12.9271
2023-05-22T17:49:33.765Z,11.93553
2023-05-22T17:54:35.215Z,12.12323
2023-05-22T17:59:39.178Z,12.38208
2023-05-22T18:04:41.668Z,12.83975
2023-05-22T18:09:43.087Z,12.50436
2023-05-22T18:14:44.445Z,13.00999
2023-05-22T18:19:45.827Z,13.84563
2023-05-22T18:24:47.237Z,13.96314
2023-05-22T18:29:48.609Z,12.85341
2023-05-22T18:34:50.006Z,13.20691
2023-05-22T18:39:51.466Z,13.4664
2023-05-22T18:44:52.843Z,12.55899
2023-05-22T18:49:54.281Z,13.33618
2023-05-22T18:54:55.672Z,12.70795
2023-05-22T18:59:57.048Z,13.6468
2023-05-22T19:04:58.466Z,13.8272
2023-05-22T19:10:00.028Z,13.49657
2023-05-22T19:15:01.447Z,13.35841
2023-05-22T19:20:02.864Z,13.74081
2023-05-22T19:25:04.277Z,13.44798
2023-05-22T19:30:05.662Z,13.44575
2023-05-22T19:35:07.070Z,13.3619
2023-05-22T19:40:08.509Z,13.46894
2023-05-22T19:45:09.891Z,12.96743
2023-05-22T19:50:11.283Z,13.19294
2023-05-22T19:55:12.696Z,13.45115
2023-05-22T20:00:14.168Z,13.3365
2023-05-22T20:05:15.809Z,12.74098
2023-05-22T20:10:17.270Z,12.47197
2023-05-22T20:15:18.671Z,11.85009
2023-05-22T20:20:20.095Z,11.74878
2023-05-22T20:25:21.580Z,11.54646
2023-05-22T20:30:23.140Z,11.21679
2023-05-22T20:35:24.687Z,10.5187
2023-05-22T20:40:26.077Z,10.60731
2023-05-22T20:45:27.485Z,10.5584
2023-05-22T20:50:28.879Z,11.0148
2023-05-22T20:55:30.383Z,11.06561
2023-05-22T21:00:31.787Z,11.17709
2023-05-22T21:05:33.296Z,11.32446
2023-05-22T21:10:34.665Z,11.61411
2023-05-22T21:15:36.081Z,11.20409
2023-05-22T21:20:37.808Z,10.93127
2023-05-22T21:25:39.264Z,11.09864
2023-05-22T21:30:40.913Z,11.73163
2023-05-22T21:35:42.541Z,11.89837
2023-05-22T21:40:43.927Z,12.71239
2023-05-22T21:45:45.397Z,12.87215
2023-05-22T21:50:46.812Z,13.56041
2023-05-22T21:55:48.384Z,12.80323
2023-05-22T22:00:49.792Z,13.31077
2023-05-22T22:05:51.282Z,11.98952
2023-05-22T22:10:52.767Z,11.92124
2023-05-22T22:15:54.176Z,12.32618
2023-05-22T22:20:55.575Z,12.83118
2023-05-22T22:25:57.030Z,12.39828
2023-05-22T22:30:58.537Z,12.23598
2023-05-22T22:35:59.923Z,12.70858
2023-05-22T22:41:01.353Z,12.29061
2023-05-22T22:46:02.906Z,12.33444
2023-05-22T22:51:04.306Z,12.25186
2023-05-22T22:56:05.734Z,12.7667
2023-05-22T23:01:07.221Z,13.19643
2023-05-22T23:06:08.698Z,13.63441
2023-05-22T23:11:10.125Z,13.45179
2023-05-22T23:16:11.595Z,13.54866
2023-05-22T23:21:13.061Z,12.86548
2023-05-22T23:26:14.490Z,13.01412
2023-05-22T23:31:15.908Z,13.35778
2023-05-22T23:36:17.427Z,12.39447
2023-05-22T23:41:18.897Z,13.08368
2023-05-22T23:46:20.431Z,11.84851
2023-05-22T23:51:22.041Z,12.59011
2023-05-22T23:56:23.506Z,12.76131
